Time;durP1;ratioP1;P1;durP2;ratioP2;P2;SDS_P1;SDS_P2;PMS_P1;PMS_P2;Temp;Humidity;BMP_temperature;BMP_pressure;BME280_temperature;BME280_humidity;BME280_pressure;Samples;Min_cycle;Max_cycle;Signal;HPM_P1;HPM_P2
2022/08/02 00:01:20;;;;;;;2.08;0.80;;;25.30;39.00;;;;;;5010982;28;20420;-58
2022/08/02 00:03:46;;;;;;;2.08;0.80;;;25.20;39.00;;;;;;5010962;28;20090;-57
2022/08/02 00:06:12;;;;;;;1.98;0.75;;;25.20;39.10;;;;;;5010990;28;20034;-56
2022/08/02 00:08:38;;;;;;;1.42;0.70;;;25.20;39.20;;;;;;5010097;28;20084;-56
2022/08/02 00:11:04;;;;;;;2.00;0.70;;;25.20;39.30;;;;;;5009504;28;20343;-58
2022/08/02 00:13:30;;;;;;;1.70;0.70;;;25.20;39.30;;;;;;5010031;28;20069;-57
2022/08/02 00:15:56;;;;;;;1.85;0.60;;;25.20;39.40;;;;;;5010599;28;20057;-57
2022/08/02 00:18:22;;;;;;;2.25;0.75;;;25.10;39.40;;;;;;5009881;28;20026;-55
2022/08/02 00:20:48;;;;;;;1.42;0.70;;;25.20;39.50;;;;;;5008336;28;20108;-56
2022/08/02 00:23:14;;;;;;;3.00;0.90;;;25.20;39.60;;;;;;5009119;28;20038;-56
2022/08/02 00:25:39;;;;;;;1.58;0.80;;;25.10;39.60;;;;;;5009641;28;20120;-54
2022/08/02 00:28:05;;;;;;;2.40;0.90;;;25.20;39.70;;;;;;5009919;28;20049;-57
2022/08/02 00:30:31;;;;;;;1.98;0.65;;;25.10;39.70;;;;;;5007105;28;20026;-55
2022/08/02 00:32:57;;;;;;;1.80;0.80;;;25.10;39.80;;;;;;5010727;28;20357;-58
2022/08/02 00:35:23;;;;;;;1.30;0.75;;;25.10;39.80;;;;;;5012013;28;20041;-55
2022/08/02 00:37:49;;;;;;;1.50;0.65;;;25.10;39.90;;;;;;5010328;28;20038;-57
2022/08/02 00:40:20;;;;;;;2.92;1.15;;;25.10;39.90;;;;;;5008874;28;20076;-57
2022/08/02 00:42:45;;;;;;;1.52;0.63;;;25.10;40.00;;;;;;5009710;28;20034;-57
2022/08/02 00:45:11;;;;;;;1.98;0.88;;;25.10;40.10;;;;;;5012820;28;20022;-56
2022/08/02 00:47:37;;;;;;;1.52;0.70;;;25.10;40.10;;;;;;5013898;28;20445;-55
2022/08/02 00:50:04;;;;;;;2.03;0.82;;;25.10;40.30;;;;;;5012701;28;20357;-53
2022/08/02 00:52:29;;;;;;;0.88;0.50;;;25.10;40.30;;;;;;5013405;28;20361;-51
2022/08/02 00:54:55;;;;;;;1.23;0.57;;;25.00;40.30;;;;;;5012316;28;20057;-56
2022/08/02 00:57:21;;;;;;;1.77;0.70;;;25.00;40.40;;;;;;5012774;28;20046;-56
2022/08/02 00:59:47;;;;;;;2.28;0.70;;;25.00;40.40;;;;;;5012950;28;20353;-55
2022/08/02 01:02:13;;;;;;;2.30;0.80;;;25.00;40.50;;;;;;5013632;28;20453;-54
2022/08/02 01:04:39;;;;;;;1.75;0.80;;;25.00;40.50;;;;;;5013385;28;20033;-56
2022/08/02 01:07:05;;;;;;;2.25;0.80;;;25.00;40.60;;;;;;5012653;28;20034;-54
2022/08/02 01:09:31;;;;;;;1.55;0.60;;;25.00;40.60;;;;;;5012497;28;20208;-56
2022/08/02 01:11:56;;;;;;;1.83;0.65;;;25.00;40.70;;;;;;5012483;28;20348;-55
2022/08/02 01:14:24;;;;;;;2.03;0.70;;;25.00;40.70;;;;;;5013390;28;20441;-55
2022/08/02 01:17:04;;;;;;;2.25;0.70;;;25.00;40.80;;;;;;5013159;28;20108;-56
2022/08/02 01:19:52;;;;;;;0.85;0.50;;;25.00;40.80;;;;;;5013955;28;20041;-55
2022/08/02 01:22:37;;;;;;;2.85;0.68;;;24.90;40.80;;;;;;5011257;28;20041;-55
2022/08/02 01:25:32;;;;;;;1.40;0.70;;;24.90;40.90;;;;;;5012936;28;20040;-55
2022/08/02 01:28:16;;;;;;;;;;;24.90;40.90;;;;;;5011447;28;20069;-58
2022/08/02 01:30:46;;;;;;;1.55;0.70;;;24.90;41.00;;;;;;5013448;28;19917;-58
2022/08/02 01:33:17;;;;;;;1.27;0.50;;;24.90;41.00;;;;;;5010282;28;20041;-56
2022/08/02 01:35:46;;;;;;;2.05;0.77;;;24.80;41.10;;;;;;5011758;28;20055;-56
2022/08/02 01:38:42;;;;;;;1.25;0.60;;;24.90;41.20;;;;;;5009694;28;20114;-58
2022/08/02 01:41:11;;;;;;;1.30;0.55;;;24.80;41.10;;;;;;5011674;28;20046;-58
2022/08/02 01:43:41;;;;;;;2.97;0.88;;;24.80;41.30;;;;;;5010483;28;20030;-59
2022/08/02 01:46:08;;;;;;;1.15;0.60;;;24.80;41.30;;;;;;5011718;28;20036;-59
2022/08/02 01:48:36;;;;;;;1.92;0.70;;;24.80;41.30;;;;;;5004432;28;20046;-55
2022/08/02 01:51:03;;;;;;;1.35;0.75;;;24.80;41.40;;;;;;5011657;28;20041;-57
2022/08/02 01:53:30;;;;;;;0.80;0.50;;;24.80;41.40;;;;;;5011855;28;20350;-54
2022/08/02 01:55:58;;;;;;;1.42;0.50;;;24.80;41.40;;;;;;5012171;28;20069;-56
2022/08/02 01:58:28;;;;;;;2.45;0.60;;;24.80;41.50;;;;;;5009908;28;20061;-54
2022/08/02 02:00:57;;;;;;;1.40;0.73;;;24.80;41.50;;;;;;5012623;28;20041;-56
2022/08/02 02:03:25;;;;;;;1.17;0.60;;;24.80;41.60;;;;;;5011525;28;20406;-56
2022/08/02 02:05:54;;;;;;;1.17;0.60;;;24.80;41.70;;;;;;5011899;28;20088;-55
2022/08/02 02:08:26;;;;;;;1.67;0.68;;;24.80;41.70;;;;;;5011483;28;20038;-59
2022/08/02 02:10:53;;;;;;;1.77;0.65;;;24.70;41.60;;;;;;5012599;28;20026;-55
2022/08/02 02:13:19;;;;;;;2.10;0.60;;;24.70;41.70;;;;;;5009622;28;20364;-58
2022/08/02 02:15:47;;;;;;;2.30;0.70;;;24.70;41.70;;;;;;5012426;28;20088;-56
2022/08/02 02:18:22;;;;;;;1.35;0.50;;;24.70;41.80;;;;;;5012002;28;20041;-54
2022/08/02 02:20:48;;;;;;;1.17;0.40;;;24.70;41.80;;;;;;5012062;28;20030;-56
2022/08/02 02:23:14;;;;;;;2.13;0.40;;;24.70;41.90;;;;;;5010562;28;20433;-55
2022/08/02 02:25:41;;;;;;;3.15;0.80;;;24.70;41.90;;;;;;5009700;28;20072;-55
2022/08/02 02:28:13;;;;;;;1.90;0.50;;;24.70;42.00;;;;;;5011993;28;20362;-57
2022/08/02 02:30:44;;;;;;;1.20;0.57;;;24.70;41.90;;;;;;4979955;28;20360;-56
2022/08/02 02:33:12;;;;;;;1.63;0.60;;;24.60;41.90;;;;;;5010719;28;20044;-55
2022/08/02 02:35:41;;;;;;;4.13;0.63;;;24.70;42.00;;;;;;5011156;28;20037;-56
2022/08/02 02:38:12;;;;;;;1.65;0.90;;;24.60;42.00;;;;;;5009517;28;20053;-55
2022/08/02 02:40:40;;;;;;;1.85;0.55;;;24.60;42.00;;;;;;5012019;28;20053;-56
2022/08/02 02:43:08;;;;;;;1.88;0.70;;;24.60;42.00;;;;;;5010634;28;20105;-57
2022/08/02 02:45:36;;;;;;;1.48;0.90;;;24.60;42.00;;;;;;5011542;28;20456;-56
2022/08/02 02:48:03;;;;;;;1.83;0.52;;;24.60;42.10;;;;;;5009891;28;20037;-57
2022/08/02 02:50:30;;;;;;;1.02;0.47;;;24.60;42.10;;;;;;5011408;28;20037;-59
2022/08/02 02:52:57;;;;;;;2.72;0.70;;;24.60;42.10;;;;;;5010734;28;20034;-57
2022/08/02 02:55:24;;;;;;;1.40;0.50;;;24.60;42.10;;;;;;5010683;28;20030;-58
2022/08/02 02:57:50;;;;;;;2.83;0.70;;;24.60;42.10;;;;;;5010957;28;20062;-57
2022/08/02 03:00:16;;;;;;;1.92;0.65;;;24.60;42.10;;;;;;5011327;28;20454;-56
2022/08/02 03:02:46;;;;;;;1.35;0.65;;;24.50;42.00;;;;;;5010137;28;20049;-56
2022/08/02 03:05:14;;;;;;;1.85;0.70;;;24.60;42.10;;;;;;5010486;28;20026;-56
2022/08/02 03:07:40;;;;;;;1.13;0.50;;;24.60;42.10;;;;;;5011186;28;20034;-57
2022/08/02 03:10:07;;;;;;;1.52;0.70;;;24.50;42.70;;;;;;5010267;28;20032;-57
2022/08/02 03:12:34;;;;;;;1.15;0.52;;;24.50;42.10;;;;;;5011877;28;20030;-55
2022/08/02 03:15:06;;;;;;;4.20;0.70;;;24.50;42.10;;;;;;5011118;28;20998;-56
2022/08/02 03:17:43;;;;;;;1.67;0.80;;;24.50;42.10;;;;;;5008413;28;20034;-58
2022/08/02 03:20:15;;;;;;;1.33;0.57;;;24.50;42.10;;;;;;5008367;28;20345;-56
2022/08/02 03:22:42;;;;;;;1.02;0.50;;;24.50;42.20;;;;;;5010352;28;20096;-57
2022/08/02 03:25:09;;;;;;;2.22;0.60;;;24.40;42.10;;;;;;5009429;28;20145;-55
2022/08/02 03:27:36;;;;;;;1.58;0.63;;;24.40;42.20;;;;;;5011869;28;20034;-55
2022/08/02 03:30:04;;;;;;;1.60;0.50;;;24.40;42.20;;;;;;5010515;28;20194;-57
2022/08/02 03:32:30;;;;;;;2.65;0.60;;;24.40;42.20;;;;;;5009764;28;20152;-57
2022/08/02 03:34:56;;;;;;;2.88;0.60;;;24.40;42.20;;;;;;5010437;28;20102;-56
2022/08/02 03:37:23;;;;;;;1.90;0.50;;;24.40;42.20;;;;;;5011114;28;20026;-56
2022/08/02 03:39:52;;;;;;;1.52;0.63;;;24.40;42.20;;;;;;5010619;28;20108;-58
2022/08/02 03:42:18;;;;;;;2.20;0.75;;;24.40;42.20;;;;;;5009684;28;20030;-55
2022/08/02 03:44:45;;;;;;;2.50;0.80;;;24.40;42.30;;;;;;5011281;28;20034;-58
2022/08/02 03:47:11;;;;;;;1.42;0.70;;;24.40;42.30;;;;;;5010949;28;20398;-55
2022/08/02 03:49:38;;;;;;;2.05;0.65;;;24.40;42.30;;;;;;5009957;28;20049;-55
2022/08/02 03:52:05;;;;;;;1.60;0.60;;;24.30;42.30;;;;;;5010287;28;20033;-55
2022/08/02 03:54:31;;;;;;;1.25;0.60;;;24.30;42.30;;;;;;5010393;28;20026;-57
2022/08/02 03:56:57;;;;;;;2.35;0.63;;;24.30;42.30;;;;;;5009378;28;20099;-56
2022/08/02 03:59:22;;;;;;;2.33;0.75;;;24.30;42.40;;;;;;5009210;28;20400;-56
2022/08/02 04:01:48;;;;;;;1.38;0.68;;;24.30;42.40;;;;;;5010075;28;20141;-57
2022/08/02 04:04:14;;;;;;;2.35;0.80;;;24.30;42.40;;;;;;5009837;28;20018;-57
2022/08/02 04:06:40;;;;;;;1.70;0.60;;;24.30;42.40;;;;;;5010915;28;20076;-56
2022/08/02 04:09:06;;;;;;;1.60;0.60;;;24.30;42.40;;;;;;5010147;28;20022;-57
2022/08/02 04:11:31;;;;;;;1.30;0.73;;;24.30;42.50;;;;;;5010054;28;20132;-58
2022/08/02 04:14:00;;;;;;;2.00;0.85;;;24.30;42.50;;;;;;5009952;28;20402;-58
2022/08/02 04:16:42;;;;;;;2.03;0.70;;;24.30;42.50;;;;;;5009782;28;20026;-54
2022/08/02 04:19:12;;;;;;;1.58;0.70;;;24.30;42.60;;;;;;5013074;28;20096;-56
2022/08/02 04:21:43;;;;;;;2.85;0.70;;;24.30;42.60;;;;;;5012885;28;20086;-57
2022/08/02 04:24:10;;;;;;;2.75;0.68;;;24.30;42.70;;;;;;5012364;28;20026;-56
2022/08/02 04:26:37;;;;;;;1.48;0.70;;;24.30;42.70;;;;;;5012971;28;20485;-54
2022/08/02 04:29:05;;;;;;;1.67;0.68;;;24.30;42.70;;;;;;5012810;28;20053;-58
2022/08/02 04:31:31;;;;;;;2.42;0.70;;;24.30;42.70;;;;;;5013637;28;20080;-56
2022/08/02 04:33:58;;;;;;;1.80;0.65;;;24.20;42.70;;;;;;5014204;28;20036;-57
2022/08/02 04:36:23;;;;;;;2.00;0.70;;;24.30;42.80;;;;;;5013610;28;20078;-56
2022/08/02 04:38:49;;;;;;;2.80;0.70;;;24.20;42.80;;;;;;5014362;28;20053;-57
2022/08/02 04:41:15;;;;;;;2.38;0.70;;;24.20;42.80;;;;;;5013119;28;20385;-55
2022/08/02 04:43:41;;;;;;;1.70;0.70;;;24.20;42.90;;;;;;5013540;28;20152;-57
2022/08/02 04:46:07;;;;;;;2.08;0.80;;;24.30;42.90;;;;;;5012275;28;20477;-56
2022/08/02 04:48:33;;;;;;;2.00;0.82;;;24.20;42.90;;;;;;5012310;28;20060;-57
2022/08/02 04:50:59;;;;;;;1.77;0.60;;;24.20;42.90;;;;;;5012919;28;20030;-57
2022/08/02 04:53:25;;;;;;;2.72;0.90;;;24.30;43.00;;;;;;5013867;28;20429;-57
2022/08/02 04:55:50;;;;;;;1.88;0.85;;;24.20;43.00;;;;;;5012068;28;20048;-55
2022/08/02 04:58:16;;;;;;;2.22;0.88;;;24.20;43.00;;;;;;5013524;28;20109;-58
2022/08/02 05:00:43;;;;;;;1.85;0.80;;;24.20;43.10;;;;;;5013142;28;20060;-56
2022/08/02 05:03:09;;;;;;;1.67;0.60;;;24.20;43.10;;;;;;5014035;28;20056;-58
2022/08/02 05:05:35;;;;;;;2.67;0.80;;;24.20;43.10;;;;;;5013159;28;20433;-58
2022/08/02 05:08:00;;;;;;;1.00;0.60;;;24.20;43.10;;;;;;5012076;28;20041;-56
2022/08/02 05:10:26;;;;;;;1.73;0.68;;;24.20;43.20;;;;;;5012681;28;20026;-59
2022/08/02 05:12:52;;;;;;;2.65;0.90;;;24.20;43.20;;;;;;5012514;28;20027;-58
2022/08/02 05:15:18;;;;;;;1.45;0.70;;;24.20;43.90;;;;;;5011866;28;20030;-53
2022/08/02 05:17:45;;;;;;;2.10;0.80;;;24.20;43.30;;;;;;5012769;28;20029;-54
2022/08/02 05:20:14;;;;;;;2.90;0.88;;;24.20;43.30;;;;;;5012484;28;20057;-57
2022/08/02 05:22:41;;;;;;;1.98;0.80;;;24.20;43.30;;;;;;5012747;28;20026;-54
2022/08/02 05:25:07;;;;;;;2.30;0.73;;;24.20;43.40;;;;;;5013355;28;20022;-56
2022/08/02 05:27:33;;;;;;;1.17;0.70;;;24.20;43.40;;;;;;5011229;28;20048;-59
2022/08/02 05:29:59;;;;;;;1.63;0.68;;;24.20;43.40;;;;;;5010399;28;20521;-56
2022/08/02 05:32:25;;;;;;;2.30;0.77;;;24.20;43.40;;;;;;5011734;28;20026;-57
2022/08/02 05:34:51;;;;;;;2.67;0.98;;;24.20;43.40;;;;;;5012721;28;20361;-56
2022/08/02 05:37:17;;;;;;;2.35;0.93;;;24.20;43.50;;;;;;5011716;28;20030;-57
2022/08/02 05:39:43;;;;;;;1.85;0.93;;;24.20;43.50;;;;;;5011825;28;20057;-57
2022/08/02 05:42:09;;;;;;;2.13;0.80;;;24.20;43.50;;;;;;5011463;28;20377;-54
2022/08/02 05:44:35;;;;;;;2.20;0.82;;;24.20;43.50;;;;;;5012476;28;20424;-55
2022/08/02 05:47:01;;;;;;;2.72;1.05;;;24.20;43.60;;;;;;5011807;28;20038;-57
2022/08/02 05:49:27;;;;;;;2.17;0.90;;;24.20;43.60;;;;;;5012755;28;20032;-58
2022/08/02 05:52:03;;;;;;;2.60;0.93;;;24.20;43.60;;;;;;5010831;28;20484;-58
2022/08/02 05:54:35;;;;;;;1.92;0.85;;;24.20;43.60;;;;;;5011596;28;20029;-58
2022/08/02 05:57:04;;;;;;;2.67;1.00;;;24.20;43.70;;;;;;5010726;28;20056;-56
2022/08/02 06:00:00;;;;;;;1.85;0.95;;;24.20;43.70;;;;;;5011580;28;20037;-57
2022/08/02 06:02:32;;;;;;;2.42;0.85;;;24.20;43.70;;;;;;5011907;28;20132;-58
2022/08/02 06:05:19;;;;;;;3.92;1.15;;;24.20;43.80;;;;;;5012264;28;20022;-56
2022/08/02 06:07:47;;;;;;;3.70;0.93;;;24.20;44.50;;;;;;5010909;28;20042;-54
2022/08/02 06:10:15;;;;;;;2.08;1.00;;;24.20;43.90;;;;;;5012886;28;20044;-54
2022/08/02 06:12:47;;;;;;;2.40;0.80;;;24.20;43.90;;;;;;5011705;28;20096;-54
2022/08/02 06:15:14;;;;;;;1.90;1.00;;;24.20;44.60;;;;;;5012198;28;20117;-56
2022/08/02 06:17:40;;;;;;;6.00;1.20;;;24.20;44.00;;;;;;5009927;28;20033;-56
2022/08/02 06:20:07;;;;;;;2.58;1.17;;;24.20;44.00;;;;;;5009135;28;20489;-58
2022/08/02 06:22:34;;;;;;;5.45;1.58;;;24.20;44.00;;;;;;5007029;28;20045;-62
2022/08/02 06:25:01;;;;;;;3.00;0.90;;;24.20;44.00;;;;;;5012028;28;20022;-56
2022/08/02 06:27:27;;;;;;;1.90;0.80;;;24.20;44.00;;;;;;5012352;28;20038;-56
2022/08/02 06:29:54;;;;;;;3.72;1.23;;;24.20;44.10;;;;;;5012157;28;20457;-53
2022/08/02 06:32:20;;;;;;;4.80;1.10;;;24.20;44.10;;;;;;5011474;28;20030;-58
2022/08/02 06:34:46;;;;;;;4.15;1.20;;;24.20;44.10;;;;;;5011794;28;20044;-56
2022/08/02 06:37:35;;;;;;;2.80;1.02;;;24.20;44.10;;;;;;5010869;28;20030;-56
2022/08/02 06:40:23;;;;;;;2.25;0.88;;;24.20;44.20;;;;;;5009346;28;20453;-56
2022/08/02 06:43:01;;;;;;;2.03;1.02;;;24.20;44.20;;;;;;5010014;28;20060;-57
2022/08/02 06:45:27;;;;;;;4.32;1.00;;;24.20;44.20;;;;;;5010789;28;20033;-59
2022/08/02 06:47:53;;;;;;;4.13;1.60;;;24.20;44.30;;;;;;5011020;28;20052;-59
2022/08/02 06:50:19;;;;;;;6.15;1.50;;;24.30;44.30;;;;;;5008819;28;20434;-56
2022/08/02 06:52:45;;;;;;;2.67;1.10;;;24.20;44.40;;;;;;5010295;28;20452;-58
2022/08/02 06:55:11;;;;;;;5.15;1.10;;;24.20;44.40;;;;;;5009471;28;20113;-57
2022/08/02 06:57:37;;;;;;;4.07;0.90;;;24.30;44.60;;;;;;5010280;28;20118;-55
2022/08/02 07:00:07;;;;;;;3.33;1.02;;;24.30;44.60;;;;;;5009867;28;20030;-56
2022/08/02 07:02:35;;;;;;;1.75;0.90;;;24.30;44.70;;;;;;5006929;28;20045;-55
2022/08/02 07:05:02;;;;;;;3.22;1.27;;;24.30;44.90;;;;;;5009975;28;20045;-58
2022/08/02 07:07:28;;;;;;;3.00;0.95;;;24.30;44.90;;;;;;5011618;28;20369;-57
2022/08/02 07:09:54;;;;;;;2.67;1.02;;;24.30;45.10;;;;;;5011563;28;20030;-57
2022/08/02 07:12:20;;;;;;;3.78;1.30;;;24.30;45.20;;;;;;5013784;28;20049;-56
2022/08/02 07:14:46;;;;;;;3.00;1.08;;;24.30;45.30;;;;;;5014529;28;20041;-56
2022/08/02 07:17:12;;;;;;;2.58;1.00;;;24.30;45.40;;;;;;5009063;28;20037;-58
2022/08/02 07:19:38;;;;;;;2.78;1.20;;;24.30;45.40;;;;;;5014129;28;20357;-57
2022/08/02 07:22:04;;;;;;;3.35;1.17;;;24.30;45.50;;;;;;5015211;28;20109;-58
2022/08/02 07:24:30;;;;;;;4.20;1.60;;;24.30;45.60;;;;;;5009550;28;20030;-59
2022/08/02 07:26:57;;;;;;;2.88;1.08;;;24.30;45.70;;;;;;5010521;28;20042;-59
2022/08/02 07:29:23;;;;;;;4.20;1.20;;;24.30;45.80;;;;;;5010847;28;20453;-59
2022/08/02 07:31:49;;;;;;;9.57;1.38;;;24.30;45.90;;;;;;5007639;28;20117;-56
2022/08/02 07:34:15;;;;;;;4.25;1.60;;;24.30;45.90;;;;;;5012238;28;20382;-53
2022/08/02 07:36:40;;;;;;;4.47;1.17;;;24.30;46.00;;;;;;5015020;28;20045;-57
2022/08/02 07:39:06;;;;;;;1.67;1.13;;;24.30;46.10;;;;;;5014543;28;20483;-57
2022/08/02 07:41:32;;;;;;;2.00;1.10;;;24.40;46.30;;;;;;5009915;28;20053;-56
2022/08/02 07:43:58;;;;;;;3.47;1.30;;;24.40;46.40;;;;;;5010409;28;20378;-54
2022/08/02 07:46:24;;;;;;;2.53;1.52;;;24.40;46.40;;;;;;5010346;28;20037;-52
2022/08/02 07:48:52;;;;;;;3.88;1.20;;;24.40;46.50;;;;;;5008162;28;20038;-56
2022/08/02 07:51:18;;;;;;;2.90;1.00;;;24.40;46.50;;;;;;5008556;28;20034;-56
2022/08/02 07:53:43;;;;;;;3.03;1.48;;;24.40;46.60;;;;;;5012702;28;20088;-59
2022/08/02 07:56:09;;;;;;;3.22;1.20;;;24.40;46.70;;;;;;5014468;28;20038;-56
2022/08/02 07:58:35;;;;;;;2.20;0.90;;;24.40;46.80;;;;;;5014302;28;20040;-58
2022/08/02 08:01:01;;;;;;;1.92;1.00;;;24.40;46.80;;;;;;5014433;28;20056;-58
2022/08/02 08:03:27;;;;;;;2.72;1.08;;;24.40;46.90;;;;;;5010367;28;20061;-52
2022/08/02 08:05:53;;;;;;;2.78;1.27;;;24.40;47.00;;;;;;5015370;28;20104;-56
2022/08/02 08:08:19;;;;;;;2.88;1.00;;;24.40;47.10;;;;;;5013263;28;20125;-55
2022/08/02 08:10:46;;;;;;;2.10;0.93;;;24.40;47.10;;;;;;5013878;28;20022;-57
2022/08/02 08:13:12;;;;;;;2.90;1.83;;;24.40;47.30;;;;;;5012766;28;20034;-58
2022/08/02 08:15:38;;;;;;;5.47;1.20;;;24.40;47.40;;;;;;5012612;28;20038;-55
2022/08/02 08:18:03;;;;;;;4.43;1.05;;;24.50;47.40;;;;;;5014689;28;20056;-55
2022/08/02 08:20:29;;;;;;;2.20;1.00;;;24.50;47.50;;;;;;5018782;28;20038;-56
2022/08/02 08:22:55;;;;;;;2.78;1.10;;;24.50;47.50;;;;;;5018585;28;20120;-57
2022/08/02 08:25:21;;;;;;;2.40;1.10;;;24.50;47.60;;;;;;5005080;28;20058;-58
2022/08/02 08:27:51;;;;;;;1.95;1.00;;;24.50;47.70;;;;;;5023715;28;20518;-55
2022/08/02 08:30:18;;;;;;;4.30;1.20;;;24.50;47.70;;;;;;5009771;28;20463;-57
2022/08/02 08:32:45;;;;;;;2.50;0.90;;;24.60;47.90;;;;;;5015419;28;20156;-55
2022/08/02 08:35:11;;;;;;;2.40;1.15;;;24.50;47.90;;;;;;5017267;28;20034;-56
2022/08/02 08:37:38;;;;;;;2.35;1.17;;;24.60;47.90;;;;;;5015859;28;20041;-56
2022/08/02 08:40:05;;;;;;;2.45;1.15;;;24.60;47.90;;;;;;5029651;28;20045;-57
2022/08/02 08:42:32;;;;;;;4.85;1.20;;;24.60;47.90;;;;;;5009221;28;20104;-54
2022/08/02 08:44:58;;;;;;;3.58;1.00;;;24.60;47.90;;;;;;5012933;28;20021;-56
2022/08/02 08:47:36;;;;;;;3.40;0.95;;;24.60;47.80;;;;;;5014039;28;20042;-56
2022/08/02 08:50:07;;;;;;;3.17;1.20;;;24.60;47.80;;;;;;5011721;28;20041;-57
2022/08/02 08:52:40;;;;;;;2.88;1.25;;;24.60;47.80;;;;;;5013529;28;20168;-55
2022/08/02 08:55:09;;;;;;;1.48;1.00;;;24.60;47.80;;;;;;5012925;28;20029;-57
2022/08/02 08:57:40;;;;;;;2.20;1.00;;;24.60;47.70;;;;;;5013484;28;20042;-56
2022/08/02 09:00:08;;;;;;;1.42;0.90;;;24.70;47.80;;;;;;5013788;28;20042;-56
2022/08/02 09:02:36;;;;;;;2.78;1.00;;;24.70;47.80;;;;;;5011042;28;20037;-58
2022/08/02 09:05:02;;;;;;;1.88;1.10;;;24.70;47.90;;;;;;5012169;28;20100;-57
2022/08/02 09:07:27;;;;;;;1.63;1.00;;;24.70;48.00;;;;;;5013093;28;20188;-55
2022/08/02 09:09:53;;;;;;;2.63;1.25;;;24.70;48.10;;;;;;5008782;28;20045;-55
2022/08/02 09:12:23;;;;;;;2.25;1.10;;;24.70;48.20;;;;;;5013852;28;20457;-57
2022/08/02 09:14:50;;;;;;;1.65;1.08;;;24.70;48.20;;;;;;5011944;28;20030;-58
2022/08/02 09:17:16;;;;;;;1.20;0.80;;;24.80;48.90;;;;;;5010438;28;20049;-56
2022/08/02 09:19:42;;;;;;;1.88;1.13;;;24.80;48.30;;;;;;5011505;28;20025;-55
2022/08/02 09:22:13;;;;;;;2.08;1.00;;;24.80;48.30;;;;;;5012874;28;20508;-55
2022/08/02 09:24:42;;;;;;;3.05;1.10;;;24.80;48.30;;;;;;5011309;28;20034;-58
2022/08/02 09:27:18;;;;;;;1.25;0.70;;;24.80;48.30;;;;;;5011859;28;20053;-56
2022/08/02 09:29:46;;;;;;;0.73;0.63;;;24.80;48.30;;;;;;5017542;28;20049;-57
2022/08/02 09:32:13;;;;;;;2.03;1.10;;;24.80;48.30;;;;;;5017560;28;20065;-55
2022/08/02 09:34:50;;;;;;;1.15;1.00;;;24.90;48.10;;;;;;5017190;28;20030;-55
2022/08/02 09:37:35;;;;;;;1.65;0.80;;;24.90;48.00;;;;;;5012979;28;20511;-58
2022/08/02 09:40:02;;;;;;;0.93;0.80;;;24.90;47.90;;;;;;5013863;28;20066;-56
2022/08/02 09:42:28;;;;;;;1.65;0.63;;;24.90;47.90;;;;;;5016200;28;20022;-56
2022/08/02 09:45:02;;;;;;;2.28;0.70;;;24.90;47.80;;;;;;5015932;28;20068;-58
2022/08/02 09:47:29;;;;;;;2.20;0.93;;;24.90;47.70;;;;;;5015440;28;20049;-54
2022/08/02 09:49:56;;;;;;;1.60;0.73;;;24.90;47.50;;;;;;5014494;28;20029;-57
2022/08/02 09:52:27;;;;;;;0.90;0.60;;;25.00;47.40;;;;;;5015523;28;20042;-52
2022/08/02 09:54:53;;;;;;;1.23;0.70;;;25.00;47.30;;;;;;5016538;28;20026;-61
2022/08/02 09:57:29;;;;;;;1.40;0.60;;;25.00;47.20;;;;;;5001172;28;20065;-54
2022/08/02 09:59:56;;;;;;;0.85;0.65;;;25.00;47.00;;;;;;5007629;28;20042;-57
2022/08/02 10:02:22;;;;;;;1.17;0.70;;;25.00;46.90;;;;;;5016005;28;20121;-54
2022/08/02 10:04:48;;;;;;;0.90;0.70;;;25.00;46.90;;;;;;5002008;28;20054;-53
2022/08/02 10:07:15;;;;;;;1.48;1.00;;;25.00;46.80;;;;;;5014636;28;20449;-54
2022/08/02 10:09:41;;;;;;;1.20;0.70;;;25.10;46.90;;;;;;5015802;28;20030;-53
2022/08/02 10:12:08;;;;;;;0.88;0.70;;;25.10;46.90;;;;;;4996702;28;20030;-57
2022/08/02 10:14:34;;;;;;;1.10;0.43;;;25.10;46.80;;;;;;5004248;28;20464;-56
2022/08/02 10:17:03;;;;;;;1.50;0.80;;;25.10;46.80;;;;;;5014755;28;20177;-62
2022/08/02 10:19:29;;;;;;;0.73;0.60;;;25.10;46.80;;;;;;5016846;28;20045;-54
2022/08/02 10:22:00;;;;;;;1.10;0.68;;;25.10;46.80;;;;;;5015002;28;20341;-58
2022/08/02 10:24:29;;;;;;;0.90;0.60;;;25.10;46.80;;;;;;5016358;28;20500;-56
2022/08/02 10:26:58;;;;;;;1.55;0.80;;;25.20;46.90;;;;;;5016984;28;20434;-54
2022/08/02 10:29:45;;;;;;;0.85;0.60;;;25.20;46.80;;;;;;5015387;28;20037;-57
2022/08/02 10:32:30;;;;;;;1.02;0.80;;;25.20;46.90;;;;;;5015641;28;20040;-56
2022/08/02 10:35:13;;;;;;;;;;;25.20;46.90;;;;;;5016621;28;20140;-54
2022/08/02 10:37:43;;;;;;;0.70;0.70;;;25.20;46.90;;;;;;5016125;28;19909;-55
2022/08/02 10:40:21;;;;;;;2.55;0.63;;;25.20;46.90;;;;;;5015600;28;20033;-58
2022/08/02 10:42:49;;;;;;;0.80;0.70;;;25.20;46.90;;;;;;5016285;28;20460;-55
2022/08/02 10:45:17;;;;;;;0.70;0.45;;;25.20;46.90;;;;;;5016258;28;20121;-55
2022/08/02 10:48:01;;;;;;;2.03;0.80;;;25.30;46.90;;;;;;5016237;28;20457;-57
2022/08/02 10:50:45;;;;;;;1.38;0.90;;;25.30;46.90;;;;;;5015831;28;20030;-55
2022/08/02 10:53:23;;;;;;;1.48;0.80;;;25.30;46.80;;;;;;5015266;28;20373;-55
2022/08/02 10:55:50;;;;;;;0.95;0.57;;;25.30;46.80;;;;;;5015293;28;20065;-56
2022/08/02 10:58:18;;;;;;;0.80;0.70;;;25.30;46.80;;;;;;5015690;28;20415;-54
2022/08/02 11:00:44;;;;;;;0.75;0.43;;;25.30;46.90;;;;;;5015732;28;20034;-52
2022/08/02 11:03:28;;;;;;;1.05;0.57;;;25.30;46.80;;;;;;5015286;28;20512;-55
2022/08/02 11:06:11;;;;;;;0.70;0.60;;;25.30;46.80;;;;;;5015597;28;20049;-54
2022/08/02 11:08:37;;;;;;;0.90;0.70;;;25.30;46.70;;;;;;5015346;28;20078;-55
2022/08/02 11:11:09;;;;;;;0.85;0.57;;;25.30;46.80;;;;;;5015522;28;20036;-55
2022/08/02 11:14:05;;;;;;;0.88;0.60;;;25.30;46.70;;;;;;5014191;28;20030;-54
2022/08/02 11:16:56;;;;;;;1.33;0.50;;;25.30;46.60;;;;;;5015739;28;20033;-56
2022/08/02 11:19:23;;;;;;;0.93;0.60;;;25.30;46.60;;;;;;5015876;28;20061;-57
2022/08/02 11:22:18;;;;;;;0.50;0.50;;;25.40;46.60;;;;;;5015388;28;20030;-58
2022/08/02 11:24:46;;;;;;;2.70;0.60;;;25.40;46.50;;;;;;5014224;28;20049;-55
2022/08/02 11:27:19;;;;;;;0.70;0.60;;;25.40;46.40;;;;;;5014135;28;20361;-58
2022/08/02 11:29:47;;;;;;;0.80;0.47;;;25.40;46.30;;;;;;5015265;28;20112;-53
2022/08/02 11:32:22;;;;;;;1.58;0.70;;;25.40;46.30;;;;;;5015175;28;20053;-52
2022/08/02 11:34:54;;;;;;;0.57;0.52;;;25.40;46.10;;;;;;5015333;28;20030;-53
2022/08/02 11:37:36;;;;;;;0.55;0.55;;;25.40;46.10;;;;;;5015022;28;20450;-52
2022/08/02 11:40:05;;;;;;;0.52;0.52;;;25.40;46.10;;;;;;5014654;28;20044;-52
2022/08/02 11:42:34;;;;;;;0.70;0.65;;;25.40;46.00;;;;;;5014528;28;20038;-57
2022/08/02 11:45:00;;;;;;;0.63;0.60;;;25.40;45.90;;;;;;5015185;28;20034;-56
2022/08/02 11:47:26;;;;;;;1.08;0.68;;;25.40;45.80;;;;;;5015465;28;20030;-56
2022/08/02 11:50:02;;;;;;;1.02;0.60;;;25.40;45.70;;;;;;5015118;28;20492;-56
2022/08/02 11:52:33;;;;;;;0.55;0.50;;;25.40;45.60;;;;;;5014634;28;20397;-56
2022/08/02 11:54:59;;;;;;;0.60;0.60;;;25.50;45.60;;;;;;5014237;28;20100;-56
2022/08/02 11:57:25;;;;;;;0.60;0.60;;;25.50;45.60;;;;;;5015273;28;20058;-54
2022/08/02 11:59:52;;;;;;;0.70;0.60;;;25.50;45.50;;;;;;5014695;28;20408;-56
2022/08/02 12:02:21;;;;;;;0.82;0.70;;;25.50;45.50;;;;;;5014940;28;20029;-54
2022/08/02 12:05:01;;;;;;;0.65;0.50;;;25.50;45.40;;;;;;5015250;28;20038;-56
2022/08/02 12:07:35;;;;;;;1.17;0.60;;;25.50;45.30;;;;;;5015015;28;20049;-57
2022/08/02 12:10:06;;;;;;;0.52;0.52;;;25.50;45.30;;;;;;5013415;28;20026;-55
2022/08/02 12:12:33;;;;;;;0.57;0.45;;;25.60;45.40;;;;;;5015254;28;20030;-54
2022/08/02 12:14:59;;;;;;;0.57;0.50;;;25.50;45.30;;;;;;5015125;28;20022;-56
2022/08/02 12:20:12;;;;;;;0.50;0.50;;;25.60;45.20;;;;;;5014787;28;20034;-56
2022/08/02 12:22:39;;;;;;;0.60;0.60;;;25.50;45.10;;;;;;5014923;28;20121;-51
2022/08/02 12:25:17;;;;;;;0.52;0.50;;;25.60;45.10;;;;;;5012880;28;20037;-56
2022/08/02 12:27:43;;;;;;;1.25;0.60;;;25.60;45.10;;;;;;5015100;28;20045;-53
2022/08/02 12:30:16;;;;;;;0.73;0.50;;;25.60;45.00;;;;;;5014451;28;20361;-58
2022/08/02 12:32:43;;;;;;;1.20;0.65;;;25.50;44.90;;;;;;5014802;28;20440;-56
2022/08/02 12:35:15;;;;;;;0.80;0.57;;;25.60;44.90;;;;;;5014998;28;20084;-56
2022/08/02 12:37:46;;;;;;;0.40;0.40;;;25.50;44.80;;;;;;5012306;28;20034;-54
2022/08/02 12:40:28;;;;;;;0.60;0.57;;;25.60;44.80;;;;;;5017471;28;20036;-54
2022/08/02 12:42:59;;;;;;;0.77;0.47;;;25.60;44.70;;;;;;5018315;28;20030;-57
2022/08/02 12:45:27;;;;;;;1.15;0.60;;;25.60;44.60;;;;;;5019039;28;20037;-58
2022/08/02 12:47:55;;;;;;;2.05;0.70;;;25.60;44.50;;;;;;5018484;28;20033;-58
2022/08/02 12:50:28;;;;;;;2.55;0.80;;;25.60;44.50;;;;;;5014091;28;20030;-54
2022/08/02 12:53:14;;;;;;;0.90;0.63;;;25.60;44.40;;;;;;5014366;28;20057;-58
2022/08/02 12:55:53;;;;;;;1.00;0.60;;;25.60;44.30;;;;;;5012729;28;20046;-52
2022/08/02 12:58:19;;;;;;;1.10;0.60;;;25.60;44.30;;;;;;5014138;28;20026;-57
2022/08/02 13:01:05;;;;;;;0.40;0.40;;;25.60;44.20;;;;;;5017274;28;20041;-55